Route Details

Aircraft Information
Group: Trans-Pacific Ops
Types: B744, MD11
Route Data
Distance: 1386nm
Duration: 3h 25m
Origin METAR: WSSS 181730Z 11007KT 090V160 9999 FEW018 BKN140 29/24 Q1009 NOSIG
Dest. METAR: VHHH 181730Z 11005KT 9999 FEW015 29/24 Q1005 NOSIG
Freight Data
(for Aug 18, 2022)
Load Factor:
92%
Manifested Cargo: 218,304lbs
Financial History
Total Freight: 297,735lbs
Average Load: 0lbs/flt
Fuel Used: 148,916lbs
Avg. Fuel Used: 0lbs/flt
Fuel Expense: $55,331
Avg. Fuel Expense: $0
Avg. Fuel Cost: $0/lbs
Total Gross Income: $1,283,238
Pilot Pay: $408
Total Expenses: $251,230
Total Revenue: $974,302
Average Revenue: $0

Capitol Logistics 804




WSSS
Changi International Airport
Singapore, SG
VHHH
Chek Lap Kok International
Hong Kong, HK